Time;durP1;ratioP1;P1;durP2;ratioP2;P2;SDS_P1;SDS_P2;PMS_P1;PMS_P2;Temp;Humidity;BMP_temperature;BMP_pressure;BME280_temperature;BME280_humidity;BME280_pressure;Samples;Min_cycle;Max_cycle;Signal;HPM_P1;HPM_P2
2022/12/24 00:01:05;;;;;;;97.13;47.55;;;2.20;99.90;;;;;;5052104;28;20024;-80
2022/12/24 00:03:32;;;;;;;119.63;47.97;;;2.20;99.90;;;;;;5054249;28;20028;-76
2022/12/24 00:05:57;;;;;;;73.45;37.50;;;2.20;99.90;;;;;;5052125;28;20106;-77
2022/12/24 00:08:23;;;;;;;70.93;36.95;;;2.20;99.90;;;;;;5053650;28;20021;-77
2022/12/24 00:10:51;;;;;;;74.25;36.22;;;2.20;99.90;;;;;;5052910;28;20025;-80
2022/12/24 00:13:17;;;;;;;67.88;35.00;;;2.20;99.90;;;;;;5052669;28;20024;-81
2022/12/24 00:15:42;;;;;;;70.20;35.45;;;2.20;99.90;;;;;;5054097;28;20074;-77
2022/12/24 00:18:08;;;;;;;68.72;36.95;;;2.20;99.90;;;;;;5053991;28;20502;-81
2022/12/24 00:20:33;;;;;;;73.85;36.42;;;2.20;99.90;;;;;;5053891;28;20063;-81
2022/12/24 00:22:59;;;;;;;73.05;36.53;;;2.20;99.90;;;;;;5053829;28;20474;-77
2022/12/24 00:25:25;;;;;;;73.20;38.60;;;2.20;99.90;;;;;;5053814;28;20036;-81
2022/12/24 00:27:50;;;;;;;88.00;42.50;;;2.20;99.90;;;;;;5052378;28;20394;-82
2022/12/24 00:30:16;;;;;;;94.20;46.10;;;2.20;99.90;;;;;;5053882;28;20029;-81
2022/12/24 00:32:41;;;;;;;87.38;42.50;;;2.10;99.90;;;;;;5052494;28;20021;-81
2022/12/24 00:35:07;;;;;;;76.30;40.78;;;2.20;99.90;;;;;;5053509;28;20051;-76
2022/12/24 00:37:33;;;;;;;81.85;42.33;;;2.10;99.90;;;;;;5052384;28;20025;-81
2022/12/24 00:39:58;;;;;;;74.53;39.97;;;2.20;99.90;;;;;;5052460;28;20017;-81
2022/12/24 00:42:24;;;;;;;87.72;44.47;;;2.20;99.90;;;;;;5052479;28;20025;-77
2022/12/24 00:44:49;;;;;;;55.92;30.38;;;2.20;99.90;;;;;;5053387;28;20482;-79
2022/12/24 00:47:15;;;;;;;58.25;28.80;;;2.20;99.90;;;;;;5051445;28;20029;-77
2022/12/24 00:49:41;;;;;;;55.55;26.42;;;2.20;99.90;;;;;;5053339;28;20032;-77
2022/12/24 00:52:06;;;;;;;48.60;25.48;;;2.20;99.90;;;;;;5053569;28;20104;-77
2022/12/24 00:54:32;;;;;;;42.97;23.23;;;2.20;99.90;;;;;;5051989;28;20021;-76
2022/12/24 00:56:57;;;;;;;47.30;26.17;;;2.20;99.90;;;;;;5053368;28;20124;-81
2022/12/24 00:59:23;;;;;;;51.47;24.80;;;2.20;99.90;;;;;;5052111;28;20182;-81
2022/12/24 01:01:48;;;;;;;45.83;24.23;;;2.30;99.90;;;;;;5053230;28;20033;-82
2022/12/24 01:06:58;;;;;;;68.22;32.90;;;2.20;99.90;;;;;;5053304;28;20048;-81
2022/12/24 01:09:24;;;;;;;57.30;28.52;;;2.30;99.90;;;;;;5053014;28;20021;-76
2022/12/24 01:11:49;;;;;;;66.45;35.05;;;2.30;99.90;;;;;;5053214;28;20055;-76
2022/12/24 01:14:15;;;;;;;96.10;39.13;;;2.30;99.90;;;;;;5051738;28;20052;-76
2022/12/24 01:16:40;;;;;;;53.25;24.52;;;2.40;99.90;;;;;;5053130;28;20078;-77
2022/12/24 01:19:06;;;;;;;44.20;23.33;;;2.30;99.90;;;;;;5053080;28;20478;-80
2022/12/24 01:21:32;;;;;;;39.83;22.83;;;2.30;99.90;;;;;;5051713;28;20057;-80
2022/12/24 01:23:57;;;;;;;41.15;21.90;;;2.30;99.90;;;;;;5052922;28;20067;-76
2022/12/24 01:26:23;;;;;;;41.15;22.17;;;2.40;99.90;;;;;;5051565;28;20438;-81
2022/12/24 01:28:49;;;;;;;42.85;23.80;;;2.40;99.90;;;;;;5051544;28;20464;-76
2022/12/24 01:31:17;;;;;;;37.35;23.20;;;2.40;99.90;;;;;;5052976;28;20104;-82
2022/12/24 01:33:45;;;;;;;36.35;21.50;;;2.40;99.90;;;;;;5051753;28;20021;-77
2022/12/24 01:36:12;;;;;;;41.72;21.65;;;2.40;99.90;;;;;;5051785;28;20029;-77
2022/12/24 01:38:38;;;;;;;35.17;19.45;;;2.40;99.90;;;;;;5052949;28;20158;-76
2022/12/24 01:43:48;;;;;;;41.47;21.60;;;2.40;99.90;;;;;;5053097;28;20454;-81
2022/12/24 01:46:28;;;;;;;34.45;20.38;;;2.40;99.90;;;;;;5052652;28;20053;-77
2022/12/24 01:49:02;;;;;;;36.78;19.70;;;2.40;99.90;;;;;;5052855;28;20029;-81
2022/12/24 01:51:38;;;;;;;40.97;20.40;;;2.50;99.90;;;;;;5051561;28;20223;-81
2022/12/24 01:54:09;;;;;;;41.08;22.88;;;2.40;99.90;;;;;;5052637;28;20017;-80
2022/12/24 01:56:38;;;;;;;39.30;22.90;;;2.40;99.90;;;;;;5052788;28;20014;-81
2022/12/24 01:59:07;;;;;;;45.63;25.20;;;2.40;99.90;;;;;;5052639;28;20025;-81
2022/12/24 02:01:33;;;;;;;68.88;34.08;;;2.40;99.90;;;;;;5056463;28;20356;-76
2022/12/24 02:04:00;;;;;;;72.47;34.95;;;2.40;99.90;;;;;;5056503;28;20147;-81
2022/12/24 02:06:26;;;;;;;66.63;34.72;;;2.40;99.90;;;;;;5056248;28;20037;-82
2022/12/24 02:08:52;;;;;;;52.58;28.52;;;2.30;99.90;;;;;;5056450;28;20036;-76
2022/12/24 02:11:20;;;;;;;44.33;22.45;;;2.30;99.90;;;;;;5055108;28;20025;-82
2022/12/24 02:13:50;;;;;;;53.00;25.58;;;2.30;99.90;;;;;;5056270;28;20557;-81
2022/12/24 02:16:40;;;;;;;46.85;23.70;;;2.40;99.90;;;;;;5055007;28;20044;-81
2022/12/24 02:19:42;;;;;;;45.67;21.88;;;2.50;99.90;;;;;;5056331;28;20037;-81
2022/12/24 02:22:32;;;;;;;42.60;21.53;;;2.50;99.90;;;;;;5055127;28;20037;-80
2022/12/24 02:25:32;;;;;;;45.35;23.20;;;2.50;99.90;;;;;;5056060;28;20267;-81
2022/12/24 02:28:43;;;;;;;54.78;24.60;;;2.50;99.90;;;;;;5056058;28;20359;-81
2022/12/24 02:31:26;;;;;;;44.83;23.30;;;2.60;99.90;;;;;;5049640;28;20386;-76
2022/12/24 02:34:00;;;;;;;44.13;21.70;;;2.50;99.90;;;;;;5056060;28;20021;-76
2022/12/24 02:36:31;;;;;;;66.18;32.83;;;2.50;99.90;;;;;;5055882;28;20056;-76
2022/12/24 02:39:22;;;;;;;87.95;38.90;;;2.50;99.90;;;;;;5055816;28;20029;-76
2022/12/24 02:42:07;;;;;;;103.63;40.55;;;2.50;99.90;;;;;;5055860;28;20032;-81
2022/12/24 02:44:47;;;;;;;69.97;31.42;;;2.50;99.90;;;;;;5054577;28;20243;-76
2022/12/24 02:47:13;;;;;;;77.47;35.35;;;2.50;99.90;;;;;;5054403;28;20029;-81
2022/12/24 02:49:44;;;;;;;174.38;58.47;;;2.50;99.90;;;;;;5054406;28;20017;-76
2022/12/24 02:52:32;;;;;;;104.90;42.13;;;2.50;99.90;;;;;;5054668;28;20033;-76
2022/12/24 02:55:02;;;;;;;126.03;44.83;;;2.50;99.90;;;;;;5050613;28;20022;-81
2022/12/24 02:57:50;;;;;;;70.60;32.72;;;2.50;99.90;;;;;;5034433;28;20025;-81
2022/12/24 03:00:19;;;;;;;63.70;29.98;;;2.50;99.90;;;;;;5035614;28;20017;-76
2022/12/24 03:03:01;;;;;;;58.22;26.70;;;2.40;99.90;;;;;;5035591;28;20033;-81
2022/12/24 03:05:33;;;;;;;58.08;22.73;;;2.40;99.90;;;;;;5035427;28;20037;-77
2022/12/24 03:08:01;;;;;;;52.47;23.00;;;2.40;99.90;;;;;;5035402;28;20361;-81
2022/12/24 03:10:44;;;;;;;56.78;24.98;;;2.40;99.90;;;;;;5033500;28;20053;-76
2022/12/24 03:13:14;;;;;;;65.57;28.23;;;2.40;99.90;;;;;;5048870;28;20028;-77
2022/12/24 03:15:41;;;;;;;52.55;22.83;;;2.50;99.90;;;;;;5053913;28;20255;-77
2022/12/24 03:18:10;;;;;;;63.15;28.27;;;2.50;99.90;;;;;;5055194;28;20024;-80
2022/12/24 03:20:46;;;;;;;54.92;27.75;;;2.50;99.90;;;;;;5053476;28;20490;-76
2022/12/24 03:23:12;;;;;;;73.63;31.52;;;2.50;99.90;;;;;;5054167;28;20029;-76
2022/12/24 03:25:40;;;;;;;46.42;22.35;;;2.50;99.90;;;;;;5054948;28;20065;-81
2022/12/24 03:28:08;;;;;;;49.88;22.27;;;2.40;99.90;;;;;;5054903;28;20027;-82
2022/12/24 03:30:34;;;;;;;34.10;19.40;;;2.30;99.90;;;;;;5054830;28;20468;-81
2022/12/24 03:33:00;;;;;;;53.10;26.35;;;2.30;99.90;;;;;;5054864;28;20032;-76
2022/12/24 03:35:25;;;;;;;76.22;37.15;;;2.30;99.90;;;;;;5054920;28;20033;-80
2022/12/24 03:37:51;;;;;;;74.75;31.30;;;2.30;99.90;;;;;;5054833;28;20025;-80
2022/12/24 03:40:17;;;;;;;81.10;31.20;;;2.30;99.90;;;;;;5054784;28;20025;-77
2022/12/24 03:42:43;;;;;;;61.22;29.42;;;2.30;99.90;;;;;;5054606;28;20044;-78
2022/12/24 03:45:09;;;;;;;67.85;33.67;;;2.30;99.90;;;;;;5054539;28;20029;-81
2022/12/24 03:47:35;;;;;;;81.90;38.20;;;2.30;99.90;;;;;;5054573;28;20048;-76
2022/12/24 03:50:00;;;;;;;76.43;29.63;;;2.20;99.90;;;;;;5053338;28;20071;-76
2022/12/24 03:52:27;;;;;;;60.95;29.02;;;2.30;99.90;;;;;;5054474;28;20048;-77
2022/12/24 03:54:52;;;;;;;59.42;29.33;;;2.20;99.90;;;;;;5049712;28;20022;-76
2022/12/24 03:57:18;;;;;;;51.17;22.23;;;2.30;99.90;;;;;;5034424;28;20064;-77
2022/12/24 03:59:44;;;;;;;85.50;27.73;;;2.30;99.90;;;;;;5034549;28;20029;-81
2022/12/24 04:02:09;;;;;;;97.22;31.77;;;2.40;99.90;;;;;;5034298;28;20518;-81
2022/12/24 04:04:36;;;;;;;68.07;24.20;;;2.40;99.90;;;;;;5032856;28;20017;-81
2022/12/24 04:07:02;;;;;;;42.13;20.92;;;2.40;99.90;;;;;;5034124;28;20044;-77
2022/12/24 04:09:28;;;;;;;175.30;32.97;;;2.40;99.90;;;;;;5032942;28;20536;-76
2022/12/24 04:11:53;;;;;;;120.47;24.85;;;2.50;99.90;;;;;;5036359;28;20021;-77
2022/12/24 04:14:19;;;;;;;122.05;25.30;;;2.50;99.90;;;;;;5054186;28;20074;-76
2022/12/24 04:16:45;;;;;;;290.90;43.97;;;2.50;99.90;;;;;;5035053;28;20060;-76
2022/12/24 04:19:10;;;;;;;231.15;38.30;;;2.60;99.90;;;;;;5034468;28;20071;-80
2022/12/24 04:21:36;;;;;;;283.75;43.75;;;2.70;99.90;;;;;;5033653;28;20128;-81
2022/12/24 04:24:01;;;;;;;456.48;70.00;;;2.80;99.90;;;;;;5033452;28;20025;-76
2022/12/24 04:26:27;;;;;;;244.45;42.95;;;2.90;99.90;;;;;;5033690;28;20094;-81
2022/12/24 04:28:54;;;;;;;152.93;33.38;;;2.90;99.90;;;;;;5034099;28;20065;-76
2022/12/24 04:31:19;;;;;;;111.85;31.10;;;3.00;99.90;;;;;;5032672;28;20084;-76
2022/12/24 04:33:45;;;;;;;259.65;50.03;;;3.10;99.90;;;;;;5033781;28;20037;-77
2022/12/24 04:36:13;;;;;;;227.90;49.13;;;3.10;99.90;;;;;;5033876;28;20360;-80
2022/12/24 04:38:39;;;;;;;314.25;55.03;;;3.10;99.90;;;;;;5033716;28;20021;-81
2022/12/24 04:41:07;;;;;;;428.08;69.93;;;3.20;99.90;;;;;;5033684;28;20052;-76
2022/12/24 04:43:33;;;;;;;377.00;60.65;;;3.20;99.90;;;;;;5033640;28;20021;-76
2022/12/24 04:46:17;;;;;;;281.00;53.22;;;3.20;99.90;;;;;;5032384;28;20036;-77
2022/12/24 04:48:44;;;;;;;361.30;56.25;;;3.20;99.90;;;;;;5032418;28;20035;-77
2022/12/24 04:51:10;;;;;;;415.65;63.78;;;3.20;99.90;;;;;;5032117;28;20521;-76
2022/12/24 04:53:36;;;;;;;506.10;76.25;;;3.20;99.90;;;;;;5032710;28;20025;-80
2022/12/24 04:56:02;;;;;;;448.52;67.95;;;3.20;99.90;;;;;;5052099;28;20474;-76
2022/12/24 04:58:28;;;;;;;489.17;72.38;;;3.20;99.90;;;;;;5053128;28;20029;-80
2022/12/24 05:00:54;;;;;;;420.33;64.80;;;3.20;99.90;;;;;;5053351;28;20072;-76
2022/12/24 05:03:20;;;;;;;350.52;52.63;;;3.20;99.90;;;;;;5053262;28;20070;-77
2022/12/24 05:05:46;;;;;;;457.27;66.53;;;3.20;99.90;;;;;;5053283;28;20115;-80
2022/12/24 05:08:12;;;;;;;349.42;55.92;;;3.20;99.90;;;;;;5051873;28;20020;-80
2022/12/24 05:10:38;;;;;;;463.50;67.00;;;3.20;99.90;;;;;;5053229;28;20414;-80
2022/12/24 05:13:03;;;;;;;376.33;54.55;;;3.20;99.90;;;;;;5051700;28;20033;-77
2022/12/24 05:15:29;;;;;;;293.92;46.42;;;3.20;99.90;;;;;;5053201;28;20025;-81
2022/12/24 05:17:55;;;;;;;447.98;68.10;;;3.20;99.90;;;;;;5051857;28;20021;-81
2022/12/24 05:20:20;;;;;;;441.98;59.75;;;3.20;99.90;;;;;;5051784;28;20049;-76
2022/12/24 05:28:20;;;;;;;388.50;58.00;;;3.20;99.90;;;;;;5053016;28;20035;-76
2022/12/24 05:30:46;;;;;;;388.42;59.55;;;3.10;99.90;;;;;;5052969;28;20037;-81
2022/12/24 05:33:11;;;;;;;433.65;60.47;;;3.10;99.90;;;;;;5052927;28;20036;-76
2022/12/24 05:35:37;;;;;;;425.13;59.65;;;3.10;99.90;;;;;;5055822;28;20031;-77
2022/12/24 05:38:03;;;;;;;397.85;62.92;;;3.10;99.90;;;;;;5055847;28;20056;-81
2022/12/24 05:40:28;;;;;;;470.55;68.05;;;3.10;99.90;;;;;;5054962;28;20028;-81
2022/12/24 05:42:54;;;;;;;92.65;29.42;;;3.10;99.90;;;;;;5056819;28;20496;-80
2022/12/24 05:45:19;;;;;;;477.05;76.18;;;3.10;99.90;;;;;;5056725;28;20467;-77
2022/12/24 05:47:45;;;;;;;322.55;59.08;;;3.10;99.90;;;;;;5056971;28;20021;-80
2022/12/24 05:50:10;;;;;;;67.22;27.85;;;3.10;99.90;;;;;;5056785;28;20108;-76
2022/12/24 05:52:36;;;;;;;201.07;44.97;;;3.10;99.90;;;;;;5055549;28;20010;-81
2022/12/24 05:55:02;;;;;;;566.15;106.63;;;3.20;99.90;;;;;;5056670;28;20416;-76
2022/12/24 05:57:27;;;;;;;496.98;94.43;;;3.20;99.90;;;;;;5056641;28;20028;-76
2022/12/24 05:59:54;;;;;;;660.75;146.77;;;3.20;99.90;;;;;;5055995;28;20025;-81
2022/12/24 06:02:20;;;;;;;792.13;154.10;;;3.20;99.90;;;;;;5052924;28;20033;-77
2022/12/24 06:04:45;;;;;;;584.53;122.10;;;3.10;99.90;;;;;;5056376;28;20025;-77
2022/12/24 06:07:11;;;;;;;1603.28;436.55;;;3.10;99.90;;;;;;5056542;28;20055;-76
2022/12/24 06:09:36;;;;;;;1395.80;380.35;;;3.10;99.90;;;;;;5055158;28;20025;-79
2022/12/24 06:12:02;;;;;;;1146.32;331.67;;;3.10;99.90;;;;;;5055571;28;20021;-76
2022/12/24 06:14:27;;;;;;;1032.97;261.33;;;3.10;99.90;;;;;;5055989;28;20036;-76
2022/12/24 06:16:53;;;;;;;1092.28;259.65;;;3.10;99.90;;;;;;5054660;28;20021;-76
2022/12/24 06:19:19;;;;;;;1011.92;214.95;;;3.10;99.90;;;;;;5055481;28;20453;-77
2022/12/24 06:21:44;;;;;;;776.60;184.00;;;3.10;99.90;;;;;;5055873;28;20021;-80
2022/12/24 06:24:10;;;;;;;997.17;217.57;;;3.10;99.90;;;;;;5048322;28;20053;-77
2022/12/24 06:26:35;;;;;;;1025.55;244.70;;;3.00;99.90;;;;;;5054813;28;20047;-81
2022/12/24 06:29:01;;;;;;;1163.05;278.15;;;3.00;99.90;;;;;;5055011;28;20083;-81
2022/12/24 06:31:27;;;;;;;640.78;110.15;;;3.10;99.90;;;;;;5053974;28;20449;-81
2022/12/24 06:33:53;;;;;;;461.88;78.55;;;3.10;99.90;;;;;;5053522;28;20025;-81
2022/12/24 06:36:23;;;;;;;461.52;90.22;;;3.10;99.90;;;;;;5054797;28;20045;-81
2022/12/24 06:38:50;;;;;;;1199.07;299.80;;;3.10;99.90;;;;;;5054207;28;20033;-81
2022/12/24 06:41:17;;;;;;;1059.50;239.80;;;3.10;99.90;;;;;;5053241;28;20037;-81
2022/12/24 06:43:45;;;;;;;651.00;117.13;;;3.10;99.90;;;;;;5054283;28;20082;-82
2022/12/24 06:46:10;;;;;;;518.03;88.00;;;3.00;99.90;;;;;;5053649;28;20146;-82
2022/12/24 06:48:36;;;;;;;911.53;206.40;;;3.10;99.90;;;;;;5054652;28;20475;-82
2022/12/24 06:51:02;;;;;;;976.85;229.63;;;3.10;99.90;;;;;;5052824;28;20044;-81
2022/12/24 06:53:28;;;;;;;532.85;99.97;;;3.10;99.90;;;;;;5052936;28;20423;-81
2022/12/24 06:56:07;;;;;;;584.50;102.07;;;3.00;99.90;;;;;;5055277;28;20025;-81
2022/12/24 06:58:34;;;;;;;672.83;130.45;;;3.00;99.90;;;;;;5055353;28;20478;-81
2022/12/24 07:01:07;;;;;;;1019.95;233.45;;;3.00;99.90;;;;;;5055112;28;20028;-81
2022/12/24 07:03:33;;;;;;;783.70;152.48;;;3.10;99.90;;;;;;5054741;28;20033;-81
2022/12/24 07:05:59;;;;;;;620.67;109.53;;;3.00;99.90;;;;;;5053449;28;20079;-81
2022/12/24 07:08:25;;;;;;;598.50;102.22;;;3.00;99.90;;;;;;5053829;28;20581;-80
2022/12/24 07:10:51;;;;;;;619.88;151.82;;;3.00;99.90;;;;;;5050791;28;20533;-81
2022/12/24 07:13:17;;;;;;;845.05;190.50;;;3.00;99.90;;;;;;5053527;28;20474;-81
2022/12/24 07:15:43;;;;;;;602.08;123.00;;;3.00;99.90;;;;;;5050785;28;20056;-81
2022/12/24 07:18:09;;;;;;;554.17;108.75;;;3.10;99.90;;;;;;5052148;28;20390;-81
2022/12/24 07:20:34;;;;;;;849.47;211.45;;;3.10;99.90;;;;;;5051909;28;20033;-81
2022/12/24 07:23:00;;;;;;;1017.20;268.30;;;3.10;99.90;;;;;;5051831;28;20010;-82
2022/12/24 07:25:26;;;;;;;641.67;135.77;;;3.10;99.90;;;;;;5049605;28;20064;-82
2022/12/24 07:27:51;;;;;;;619.60;115.22;;;3.10;99.90;;;;;;5045884;28;20559;-81
2022/12/24 07:30:17;;;;;;;582.90;107.55;;;3.10;99.90;;;;;;5053219;28;20021;-81
2022/12/24 07:32:43;;;;;;;519.70;99.10;;;3.10;99.90;;;;;;5051070;28;20033;-81
2022/12/24 07:35:09;;;;;;;854.05;185.50;;;3.10;99.90;;;;;;5051564;28;20056;-80
2022/12/24 07:37:35;;;;;;;595.80;120.70;;;3.10;99.90;;;;;;5053373;28;20063;-80
2022/12/24 07:40:00;;;;;;;502.92;102.63;;;3.10;99.90;;;;;;5054419;28;20071;-81
2022/12/24 07:42:26;;;;;;;423.58;85.43;;;3.20;99.90;;;;;;5054472;28;20074;-79
2022/12/24 07:44:52;;;;;;;865.95;210.73;;;3.20;99.90;;;;;;5054448;28;20025;-81
2022/12/24 07:47:18;;;;;;;653.72;157.00;;;3.20;99.90;;;;;;5054296;28;20126;-80
2022/12/24 07:49:43;;;;;;;564.95;119.15;;;3.20;99.90;;;;;;5054338;28;20033;-81
2022/12/24 07:52:09;;;;;;;335.27;80.72;;;3.30;99.90;;;;;;5054402;28;20074;-80
2022/12/24 07:54:34;;;;;;;555.85;159.90;;;3.30;99.90;;;;;;5052792;28;20040;-82
2022/12/24 07:57:00;;;;;;;505.80;120.25;;;3.30;99.90;;;;;;5054010;28;20021;-82
2022/12/24 07:59:26;;;;;;;303.38;77.53;;;3.40;99.90;;;;;;5054140;28;20025;-83
2022/12/24 08:01:51;;;;;;;218.32;61.88;;;3.30;99.90;;;;;;5053385;28;20017;-80
2022/12/24 08:04:17;;;;;;;278.27;86.80;;;3.40;99.90;;;;;;5054421;28;20039;-80
2022/12/24 08:06:42;;;;;;;467.25;129.40;;;3.40;99.90;;;;;;5053910;28;20044;-81
2022/12/24 08:09:08;;;;;;;209.32;63.85;;;3.40;99.90;;;;;;5052006;28;20041;-81
2022/12/24 08:11:34;;;;;;;148.15;53.22;;;3.40;99.90;;;;;;5053227;28;20021;-82
2022/12/24 08:13:59;;;;;;;193.60;62.08;;;3.40;99.90;;;;;;5051648;28;20096;-81
2022/12/24 08:16:25;;;;;;;405.92;119.68;;;3.40;99.90;;;;;;5051676;28;20036;-82
2022/12/24 08:18:51;;;;;;;225.63;71.63;;;3.30;99.90;;;;;;5052139;28;20025;-81
2022/12/24 08:21:16;;;;;;;141.68;55.22;;;3.40;99.90;;;;;;5051108;28;20136;-82
2022/12/24 08:23:43;;;;;;;153.75;56.75;;;3.40;99.90;;;;;;5045096;28;20017;-81
2022/12/24 08:26:09;;;;;;;158.80;64.05;;;3.40;99.90;;;;;;5052061;28;20064;-82
2022/12/24 08:28:35;;;;;;;578.50;203.80;;;3.40;99.90;;;;;;5053407;28;20572;-82
2022/12/24 08:31:02;;;;;;;392.58;121.93;;;3.40;99.90;;;;;;5052774;28;20025;-83
2022/12/24 08:33:27;;;;;;;114.60;49.47;;;3.50;99.90;;;;;;5049288;28;20032;-81
2022/12/24 08:35:54;;;;;;;115.40;48.35;;;3.40;99.90;;;;;;5051853;28;20017;-82
2022/12/24 08:38:21;;;;;;;96.03;41.42;;;3.50;99.90;;;;;;5047628;28;20024;-81
2022/12/24 08:40:48;;;;;;;196.30;77.03;;;3.50;99.90;;;;;;5051596;28;20068;-82
2022/12/24 08:43:15;;;;;;;270.90;98.97;;;3.50;99.90;;;;;;5053244;28;20025;-81
2022/12/24 08:45:42;;;;;;;137.98;55.20;;;3.50;99.90;;;;;;5053173;28;20044;-79
2022/12/24 08:48:08;;;;;;;106.95;45.78;;;3.60;99.90;;;;;;5053299;28;20086;-80
2022/12/24 08:50:37;;;;;;;99.80;43.75;;;3.60;99.90;;;;;;5053106;28;20029;-82
2022/12/24 08:53:02;;;;;;;93.90;41.35;;;3.60;99.90;;;;;;5052301;28;20475;-81
2022/12/24 08:55:28;;;;;;;140.73;57.35;;;3.60;99.90;;;;;;5050406;28;20021;-81
2022/12/24 08:57:53;;;;;;;447.05;154.88;;;3.60;99.90;;;;;;5051786;28;20096;-81
2022/12/24 09:00:19;;;;;;;520.53;204.57;;;3.60;99.90;;;;;;5051509;28;20025;-82
2022/12/24 09:02:44;;;;;;;322.95;97.88;;;3.60;99.90;;;;;;5051748;28;20018;-81
2022/12/24 09:05:10;;;;;;;118.68;50.47;;;3.60;99.90;;;;;;5051443;28;20104;-81
2022/12/24 09:07:36;;;;;;;118.35;50.15;;;3.70;99.90;;;;;;5052112;28;20040;-82
2022/12/24 09:10:02;;;;;;;96.20;44.70;;;3.70;99.90;;;;;;5052494;28;20087;-81
2022/12/24 09:12:27;;;;;;;191.40;71.63;;;3.80;99.90;;;;;;5052743;28;20043;-81
2022/12/24 09:14:53;;;;;;;96.22;44.90;;;3.80;99.90;;;;;;5051256;28;20021;-81
2022/12/24 09:17:19;;;;;;;138.57;55.83;;;3.90;99.90;;;;;;5052711;28;20060;-83
2022/12/24 09:19:45;;;;;;;100.68;44.83;;;3.90;99.90;;;;;;5051431;28;20450;-82
2022/12/24 09:22:11;;;;;;;108.05;50.75;;;3.90;99.90;;;;;;5052859;28;20053;-82
2022/12/24 09:24:37;;;;;;;473.88;188.63;;;3.90;99.90;;;;;;5052927;28;20029;-81
2022/12/24 09:27:03;;;;;;;192.10;77.20;;;3.90;99.90;;;;;;5052484;28;20139;-82
2022/12/24 09:29:29;;;;;;;174.52;65.32;;;3.90;99.90;;;;;;5052766;28;20071;-83
2022/12/24 09:31:56;;;;;;;217.27;72.25;;;3.90;99.90;;;;;;5051342;28;20021;-82
2022/12/24 09:34:22;;;;;;;125.53;51.17;;;3.90;99.90;;;;;;5047888;28;20056;-82
2022/12/24 09:36:47;;;;;;;172.13;65.75;;;3.90;99.90;;;;;;5032613;28;20057;-81
2022/12/24 09:39:13;;;;;;;220.10;82.78;;;3.90;99.90;;;;;;5032714;28;20467;-80
2022/12/24 09:42:03;;;;;;;205.70;67.25;;;3.90;99.90;;;;;;5032634;28;20390;-81
2022/12/24 09:44:59;;;;;;;135.85;51.88;;;3.90;99.90;;;;;;5031492;28;20494;-83
2022/12/24 09:47:47;;;;;;;105.82;48.75;;;3.90;99.90;;;;;;5031264;28;20107;-84
2022/12/24 09:50:39;;;;;;;118.50;50.33;;;3.90;99.90;;;;;;5032808;28;20364;-85
2022/12/24 09:53:19;;;;;;;159.82;70.40;;;3.90;99.90;;;;;;5032462;28;20057;-82
2022/12/24 09:55:50;;;;;;;194.73;76.22;;;3.90;99.90;;;;;;5031267;28;20434;-82
2022/12/24 09:58:22;;;;;;;138.45;57.00;;;3.90;99.90;;;;;;5048298;28;20025;-83
2022/12/24 10:00:50;;;;;;;110.28;50.42;;;3.90;99.90;;;;;;5044735;28;20028;-84
2022/12/24 10:03:16;;;;;;;102.00;45.00;;;3.90;99.90;;;;;;5050946;28;20542;-84
2022/12/24 10:06:04;;;;;;;157.93;71.07;;;3.90;99.90;;;;;;5050863;28;20033;-82
2022/12/24 10:09:15;;;;;;;153.68;68.45;;;4.00;99.90;;;;;;5047562;28;20486;-82
2022/12/24 10:12:17;;;;;;;86.07;43.63;;;4.00;99.90;;;;;;5049882;28;20033;-83
2022/12/24 10:15:01;;;;;;;86.40;40.40;;;4.00;99.90;;;;;;5031293;28;20029;-82
2022/12/24 10:17:26;;;;;;;93.70;42.60;;;4.00;99.90;;;;;;5051024;28;20017;-82
2022/12/24 10:20:24;;;;;;;109.50;48.55;;;4.00;99.90;;;;;;5050920;28;20057;-82
2022/12/24 10:22:58;;;;;;;116.20;56.88;;;4.00;99.90;;;;;;5055332;28;20063;-80
2022/12/24 10:26:01;;;;;;;91.57;43.45;;;4.00;99.90;;;;;;5054388;28;20021;-82
2022/12/24 10:28:37;;;;;;;89.00;46.27;;;4.10;99.90;;;;;;5052442;28;20021;-82
2022/12/24 10:31:06;;;;;;;81.45;39.85;;;4.10;99.90;;;;;;5051886;28;20078;-82
2022/12/24 10:33:41;;;;;;;101.97;47.88;;;4.10;99.90;;;;;;5050528;28;20103;-82
2022/12/24 10:36:15;;;;;;;105.57;50.15;;;4.10;99.90;;;;;;5051774;28;20012;-82
2022/12/24 10:38:41;;;;;;;90.22;44.53;;;4.10;99.90;;;;;;5052436;28;20032;-82
2022/12/24 10:41:07;;;;;;;119.88;58.42;;;4.10;99.90;;;;;;5052853;28;20029;-82
2022/12/24 10:43:33;;;;;;;110.78;48.72;;;4.10;99.90;;;;;;5052554;28;20490;-82
2022/12/24 10:46:01;;;;;;;104.72;49.22;;;4.10;99.90;;;;;;5054501;28;20039;-83
2022/12/24 10:48:37;;;;;;;97.32;47.33;;;4.10;99.90;;;;;;5050479;28;20049;-82
2022/12/24 10:51:18;;;;;;;82.40;41.88;;;4.10;99.90;;;;;;5054583;28;20108;-81
2022/12/24 10:53:50;;;;;;;94.65;46.08;;;4.20;99.90;;;;;;5053305;28;20032;-81
2022/12/24 10:56:18;;;;;;;92.68;44.90;;;4.20;99.90;;;;;;5055348;28;20044;-82
2022/12/24 10:58:45;;;;;;;100.43;46.58;;;4.20;99.90;;;;;;5055294;28;20099;-82
2022/12/24 11:01:12;;;;;;;87.65;44.17;;;4.30;99.90;;;;;;5053868;28;20029;-81
2022/12/24 11:03:38;;;;;;;87.43;41.28;;;4.40;99.90;;;;;;5055254;28;20120;-82
2022/12/24 11:06:06;;;;;;;93.13;44.30;;;4.40;99.90;;;;;;5055084;28;20047;-82
2022/12/24 11:08:33;;;;;;;156.00;68.10;;;4.50;99.90;;;;;;5055048;28;20020;-83
2022/12/24 11:11:04;;;;;;;134.25;54.70;;;4.50;99.90;;;;;;5053635;28;20378;-81
2022/12/24 11:13:35;;;;;;;151.88;62.17;;;4.60;99.90;;;;;;5054998;28;20078;-80
2022/12/24 11:16:09;;;;;;;149.63;58.47;;;4.60;99.90;;;;;;5055025;28;20039;-82
2022/12/24 11:18:43;;;;;;;81.22;37.20;;;4.60;99.90;;;;;;5055070;28;20497;-83
2022/12/24 11:21:08;;;;;;;115.75;48.85;;;4.60;99.90;;;;;;5054763;28;20439;-81
2022/12/24 11:23:34;;;;;;;169.95;66.57;;;4.60;99.90;;;;;;5048937;28;20056;-81
2022/12/24 11:26:00;;;;;;;174.02;73.60;;;4.60;99.90;;;;;;5034015;28;20041;-82
2022/12/24 11:28:32;;;;;;;126.60;53.35;;;4.60;99.90;;;;;;5040789;28;20021;-81
2022/12/24 11:30:59;;;;;;;107.80;44.83;;;4.60;99.90;;;;;;5050880;28;20044;-80
2022/12/24 11:33:25;;;;;;;77.10;34.60;;;4.70;99.90;;;;;;5041849;28;20045;-80
2022/12/24 11:35:55;;;;;;;41.63;23.17;;;4.80;99.90;;;;;;5053730;28;20079;-80
2022/12/24 11:38:25;;;;;;;45.72;24.73;;;4.90;99.90;;;;;;5053262;28;20170;-80
2022/12/24 11:41:20;;;;;;;48.42;25.63;;;5.10;99.90;;;;;;5053281;28;20386;-79
2022/12/24 11:43:49;;;;;;;51.78;31.90;;;5.10;99.90;;;;;;5043455;28;20041;-80
2022/12/24 11:46:43;;;;;;;75.50;37.58;;;5.20;99.90;;;;;;5042551;28;20037;-81
2022/12/24 11:49:19;;;;;;;49.05;24.02;;;5.20;99.90;;;;;;5044325;28;20025;-79
2022/12/24 11:52:03;;;;;;;44.53;21.00;;;5.30;99.90;;;;;;5044699;28;20100;-80
2022/12/24 11:54:35;;;;;;;76.88;37.45;;;5.40;99.90;;;;;;5049278;28;20018;-81
2022/12/24 11:57:02;;;;;;;56.83;25.98;;;5.40;99.90;;;;;;5048493;28;20052;-82
2022/12/24 11:59:36;;;;;;;67.45;33.80;;;5.40;99.90;;;;;;5041725;28;20380;-80
2022/12/24 12:02:24;;;;;;;29.20;15.38;;;5.40;99.90;;;;;;5061588;28;20031;-80
2022/12/24 12:04:56;;;;;;;83.55;37.15;;;5.50;99.90;;;;;;5040758;28;20025;-81
2022/12/24 12:07:34;;;;;;;84.18;36.00;;;5.40;99.90;;;;;;5043599;28;20090;-80
2022/12/24 12:10:09;;;;;;;55.33;24.00;;;5.40;99.90;;;;;;5050697;28;20150;-81
2022/12/24 12:12:40;;;;;;;79.22;34.85;;;5.40;99.90;;;;;;5048527;28;20043;-82
2022/12/24 12:15:31;;;;;;;35.25;16.70;;;5.40;99.90;;;;;;5050386;28;20497;-79
2022/12/24 12:18:02;;;;;;;55.83;24.80;;;5.40;99.90;;;;;;5052807;28;20044;-79
2022/12/24 12:20:40;;;;;;;68.22;29.60;;;5.40;99.90;;;;;;5050778;28;20102;-80
2022/12/24 12:23:24;;;;;;;45.70;23.67;;;5.40;99.90;;;;;;5051313;28;20540;-79
2022/12/24 12:26:11;;;;;;;13.52;10.15;;;5.40;99.90;;;;;;5050714;28;20402;-79
2022/12/24 12:28:44;;;;;;;20.35;11.23;;;5.40;99.90;;;;;;5050946;28;20033;-78
2022/12/24 12:31:41;;;;;;;20.35;10.52;;;5.40;99.90;;;;;;5048600;28;20055;-78
2022/12/24 12:34:25;;;;;;;21.30;11.85;;;5.40;99.90;;;;;;5033548;28;20376;-78
2022/12/24 12:37:00;;;;;;;47.20;24.25;;;5.40;99.90;;;;;;5032262;28;20049;-78
2022/12/24 12:39:26;;;;;;;64.78;32.05;;;5.40;99.90;;;;;;5035016;28;20032;-78
2022/12/24 12:41:51;;;;;;;35.95;16.85;;;5.40;99.90;;;;;;5046808;28;20033;-78
2022/12/24 12:44:53;;;;;;;43.28;22.13;;;5.30;99.90;;;;;;5049084;28;20029;-78
2022/12/24 12:47:36;;;;;;;61.03;31.88;;;5.40;99.90;;;;;;5038187;28;20103;-78
2022/12/24 12:50:20;;;;;;;49.67;25.90;;;5.40;99.90;;;;;;5044410;28;20029;-79
2022/12/24 12:52:52;;;;;;;11.18;7.50;;;5.40;99.90;;;;;;5050078;28;20025;-78
2022/12/24 12:55:32;;;;;;;18.48;12.18;;;5.50;99.90;;;;;;5051964;28;20036;-78